Time;durP1;ratioP1;P1;durP2;ratioP2;P2;SDS_P1;SDS_P2;PMS_P1;PMS_P2;Temp;Humidity;BMP_temperature;BMP_pressure;BME280_temperature;BME280_humidity;BME280_pressure;Samples;Min_cycle;Max_cycle;Signal;HPM_P1;HPM_P2
2022/01/17 00:00:21;;;;;;;17.40;8.02;;;3.40;99.90;;;;;;5074915;28;20029;-63
2022/01/17 00:02:49;;;;;;;23.10;8.55;;;3.40;99.90;;;;;;5056723;28;20026;-63
2022/01/17 00:05:16;;;;;;;15.80;7.35;;;3.40;99.90;;;;;;5075156;28;20020;-63
2022/01/17 00:07:42;;;;;;;15.65;7.85;;;3.40;99.90;;;;;;5074307;28;20040;-63
2022/01/17 00:10:08;;;;;;;19.15;8.23;;;3.40;99.90;;;;;;5074550;28;20032;-63
2022/01/17 00:12:37;;;;;;;16.67;7.50;;;3.40;99.90;;;;;;5056719;28;20054;-63
2022/01/17 00:15:11;;;;;;;16.35;7.47;;;3.50;99.90;;;;;;5074414;28;20016;-63
2022/01/17 00:17:40;;;;;;;18.42;7.03;;;3.50;99.90;;;;;;5073991;28;20036;-63
2022/01/17 00:20:11;;;;;;;;;;;3.60;99.90;;;;;;5074718;28;20025;-63
2022/01/17 00:22:39;;;;;;;16.10;6.70;;;3.60;99.90;;;;;;5074342;28;19957;-63
2022/01/17 00:25:06;;;;;;;16.73;6.53;;;3.60;99.90;;;;;;5056323;28;20457;-63
2022/01/17 00:27:32;;;;;;;15.30;8.18;;;3.70;99.90;;;;;;5056447;28;20024;-63
2022/01/17 00:29:58;;;;;;;17.60;7.55;;;3.70;99.90;;;;;;5056157;28;20506;-63
2022/01/17 00:32:24;;;;;;;14.18;6.15;;;3.70;99.90;;;;;;5074167;28;20123;-63
2022/01/17 00:34:50;;;;;;;19.23;8.68;;;3.80;99.90;;;;;;5056204;28;20025;-63
2022/01/17 00:37:15;;;;;;;16.95;6.63;;;3.70;99.90;;;;;;5074085;28;20032;-64
2022/01/17 00:39:41;;;;;;;18.02;7.93;;;3.70;99.90;;;;;;5074058;28;20102;-63
2022/01/17 00:42:07;;;;;;;17.10;8.27;;;3.70;99.90;;;;;;5074550;28;20033;-63
2022/01/17 00:44:33;;;;;;;18.77;7.63;;;3.60;99.90;;;;;;5055953;28;20025;-63
2022/01/17 00:47:00;;;;;;;17.63;8.30;;;3.60;99.90;;;;;;5074097;28;20078;-63
2022/01/17 00:49:26;;;;;;;20.75;9.25;;;3.60;99.90;;;;;;5073830;28;20028;-63
2022/01/17 00:51:51;;;;;;;19.00;7.85;;;3.50;99.90;;;;;;5073616;28;20033;-63
2022/01/17 00:54:17;;;;;;;16.35;8.15;;;3.50;99.90;;;;;;5073851;28;20036;-64
2022/01/17 00:56:43;;;;;;;17.63;8.52;;;3.50;99.90;;;;;;5073825;28;20028;-63
2022/01/17 00:59:08;;;;;;;15.45;7.68;;;3.40;99.90;;;;;;5055789;28;20387;-63
2022/01/17 01:01:34;;;;;;;16.15;8.73;;;3.40;99.90;;;;;;5073772;28;20075;-63
2022/01/17 01:04:00;;;;;;;21.10;9.98;;;3.40;99.90;;;;;;5073954;28;20431;-63
2022/01/17 01:06:25;;;;;;;18.27;9.70;;;3.40;99.90;;;;;;5073967;28;20025;-63
2022/01/17 01:08:51;;;;;;;14.60;7.38;;;3.40;99.90;;;;;;5073246;28;20049;-63
2022/01/17 01:11:16;;;;;;;13.98;7.43;;;3.40;99.90;;;;;;5055728;28;20119;-63
2022/01/17 01:13:42;;;;;;;19.15;8.57;;;3.40;99.90;;;;;;5055672;28;20353;-63
2022/01/17 01:29:08;;;;;;;12.75;6.00;;;3.60;99.90;;;;;;5073235;28;20154;-64
2022/01/17 01:31:44;;;;;;;15.02;7.28;;;3.60;99.90;;;;;;5059988;28;20479;-64
2022/01/17 01:34:10;;;;;;;14.13;7.18;;;3.60;99.90;;;;;;5059543;28;20119;-63
2022/01/17 01:36:37;;;;;;;15.00;7.07;;;4.80;99.90;;;;;;5059471;28;20078;-64
2022/01/17 01:39:06;;;;;;;15.23;6.38;;;3.60;99.90;;;;;;5059502;28;20440;-63
2022/01/17 01:41:43;;;;;;;16.48;8.27;;;3.50;99.90;;;;;;5077026;28;20035;-63
2022/01/17 01:44:17;;;;;;;14.60;7.07;;;3.50;99.90;;;;;;5077367;28;20025;-63
2022/01/17 01:46:43;;;;;;;11.93;5.90;;;3.50;99.90;;;;;;5077155;28;20078;-63
2022/01/17 01:49:09;;;;;;;13.20;7.25;;;3.50;99.90;;;;;;5059149;28;20064;-63
2022/01/17 01:51:35;;;;;;;13.02;7.47;;;3.50;99.90;;;;;;5077618;28;20059;-64
2022/01/17 01:54:01;;;;;;;16.23;6.72;;;3.50;99.90;;;;;;5059133;28;20025;-63
2022/01/17 01:56:27;;;;;;;16.75;7.35;;;3.50;99.90;;;;;;5059187;28;20025;-63
2022/01/17 01:58:52;;;;;;;12.57;6.85;;;3.50;99.90;;;;;;5076709;28;20461;-63
2022/01/17 02:01:18;;;;;;;15.63;7.18;;;3.40;99.90;;;;;;5076687;28;20126;-63
2022/01/17 02:03:44;;;;;;;17.48;7.82;;;3.40;99.90;;;;;;5076673;28;20028;-63
2022/01/17 02:06:09;;;;;;;16.05;7.53;;;3.30;99.90;;;;;;5058962;28;20025;-63
2022/01/17 02:08:35;;;;;;;17.35;8.35;;;3.30;99.90;;;;;;5076365;28;20051;-63
2022/01/17 02:11:01;;;;;;;17.58;8.05;;;3.40;99.90;;;;;;5097061;28;20108;-63
2022/01/17 02:13:27;;;;;;;17.58;8.45;;;3.30;99.90;;;;;;5097061;28;20474;-63
2022/01/17 02:16:13;;;;;;;14.65;7.45;;;3.30;99.90;;;;;;5097027;28;20450;-63
2022/01/17 02:18:40;;;;;;;17.60;6.47;;;3.30;99.90;;;;;;5096985;28;20383;-63
2022/01/17 02:23:35;;;;;;;13.48;7.13;;;3.30;99.90;;;;;;5096849;28;20024;-63
2022/01/17 02:26:01;;;;;;;14.45;6.50;;;3.30;99.90;;;;;;5095519;28;20035;-64
2022/01/17 02:28:27;;;;;;;14.35;7.13;;;3.30;99.90;;;;;;5096740;28;20398;-63
2022/01/17 02:30:52;;;;;;;19.83;7.85;;;3.30;99.90;;;;;;5096455;28;20462;-64
2022/01/17 02:33:19;;;;;;;14.30;6.65;;;3.50;99.90;;;;;;5096397;28;20032;-63
2022/01/17 02:35:49;;;;;;;15.50;7.35;;;3.30;99.90;;;;;;5095387;28;20028;-63
2022/01/17 02:38:15;;;;;;;11.60;6.63;;;3.30;99.90;;;;;;5095277;28;20028;-63
2022/01/17 02:40:40;;;;;;;11.55;6.68;;;3.30;99.90;;;;;;5095997;28;20062;-63
2022/01/17 02:43:07;;;;;;;13.48;7.03;;;3.20;99.90;;;;;;5096523;28;20432;-63
2022/01/17 02:46:24;;;;;;;13.93;7.15;;;3.20;99.90;;;;;;5096432;28;20031;-62
2022/01/17 02:48:29;;;;;;;15.38;7.53;;;3.40;99.90;;;;;;5096186;28;20470;-63
2022/01/17 02:50:56;;;;;;;18.90;8.18;;;3.30;99.90;;;;;;5095148;28;20451;-63
2022/01/17 02:53:23;;;;;;;16.77;8.00;;;3.30;99.90;;;;;;5096333;28;20060;-62
2022/01/17 02:55:58;;;;;;;15.20;7.28;;;3.30;99.90;;;;;;5095274;28;20368;-63
2022/01/17 02:58:26;;;;;;;13.13;6.22;;;3.30;99.90;;;;;;5095234;28;20028;-63
2022/01/17 03:00:54;;;;;;;11.30;6.37;;;3.80;99.90;;;;;;5095852;28;20459;-63
2022/01/17 03:03:26;;;;;;;15.50;8.73;;;3.30;99.90;;;;;;5096372;28;20258;-63
2022/01/17 03:05:52;;;;;;;15.63;8.32;;;3.30;99.90;;;;;;5096093;28;20065;-63
2022/01/17 03:08:22;;;;;;;17.95;7.32;;;3.30;99.90;;;;;;5087763;28;20504;-63
2022/01/17 03:10:49;;;;;;;11.85;6.43;;;3.30;99.90;;;;;;5075697;28;20032;-63
2022/01/17 03:13:30;;;;;;;12.40;6.50;;;3.30;99.90;;;;;;5075627;28;20099;-63
2022/01/17 03:15:57;;;;;;;17.42;8.32;;;3.40;99.90;;;;;;5075934;28;20025;-63
2022/01/17 03:18:26;;;;;;;14.10;6.68;;;3.40;99.90;;;;;;5075733;28;20044;-63
2022/01/17 03:20:51;;;;;;;14.60;6.85;;;3.40;99.90;;;;;;5057576;28;20380;-63
2022/01/17 03:23:17;;;;;;;13.88;6.50;;;3.50;99.90;;;;;;5057490;28;20035;-63
2022/01/17 03:25:43;;;;;;;12.75;6.82;;;3.50;99.90;;;;;;5057587;28;20032;-63
2022/01/17 03:28:09;;;;;;;14.45;7.13;;;3.50;99.90;;;;;;5075810;28;20051;-63
2022/01/17 03:30:35;;;;;;;14.07;6.63;;;3.50;99.90;;;;;;5057296;28;20112;-63
2022/01/17 03:33:03;;;;;;;11.73;6.40;;;3.60;99.90;;;;;;5075391;28;20066;-63
2022/01/17 03:35:47;;;;;;;13.82;6.53;;;3.60;99.90;;;;;;5075343;28;20039;-63
2022/01/17 03:38:16;;;;;;;13.00;6.45;;;3.50;99.90;;;;;;5074860;28;20089;-63
2022/01/17 03:40:46;;;;;;;13.95;7.20;;;4.10;99.90;;;;;;5075351;28;20020;-63
2022/01/17 03:43:12;;;;;;;11.40;6.40;;;3.60;99.90;;;;;;5057083;28;20021;-63
2022/01/17 03:45:37;;;;;;;14.48;7.10;;;3.60;99.90;;;;;;5074730;28;20021;-63
2022/01/17 03:48:03;;;;;;;11.23;5.68;;;3.70;99.90;;;;;;5056906;28;20039;-63
2022/01/17 03:50:29;;;;;;;12.73;5.97;;;3.70;99.90;;;;;;5074609;28;20035;-62
2022/01/17 03:52:56;;;;;;;13.23;6.82;;;3.70;99.90;;;;;;5074038;28;20025;-62
2022/01/17 03:55:23;;;;;;;14.35;6.20;;;4.00;99.90;;;;;;5056875;28;20028;-63
2022/01/17 03:57:49;;;;;;;12.23;6.00;;;3.70;99.90;;;;;;5074723;28;20047;-63
2022/01/17 04:00:29;;;;;;;10.90;6.03;;;3.70;99.90;;;;;;5074403;28;20388;-63
2022/01/17 04:02:57;;;;;;;11.27;5.88;;;3.70;99.90;;;;;;5074823;28;20025;-63
2022/01/17 04:05:23;;;;;;;10.68;5.85;;;3.80;99.90;;;;;;5074596;28;20077;-63
2022/01/17 04:07:49;;;;;;;9.70;5.80;;;3.70;99.90;;;;;;5059091;28;20086;-63
2022/01/17 04:10:16;;;;;;;10.30;4.90;;;3.80;99.90;;;;;;5074473;28;20047;-63
2022/01/17 04:12:42;;;;;;;11.68;5.25;;;3.80;99.90;;;;;;5057022;28;20024;-63
2022/01/17 04:15:09;;;;;;;9.48;5.38;;;3.80;99.90;;;;;;5074323;28;20074;-63
2022/01/17 04:17:35;;;;;;;8.23;5.03;;;3.80;99.90;;;;;;5056557;28;20032;-63
2022/01/17 04:20:07;;;;;;;12.27;5.05;;;3.80;99.90;;;;;;5056401;28;20430;-63
2022/01/17 04:22:36;;;;;;;10.40;5.82;;;3.80;99.90;;;;;;5074533;28;20052;-63
2022/01/17 04:25:04;;;;;;;10.10;4.70;;;3.90;99.90;;;;;;5074179;28;20115;-63
2022/01/17 04:27:29;;;;;;;10.65;5.15;;;4.00;99.90;;;;;;5073953;28;20468;-63
2022/01/17 04:29:55;;;;;;;6.72;4.55;;;4.00;99.90;;;;;;5074084;28;20050;-63
2022/01/17 04:32:21;;;;;;;10.88;5.20;;;3.90;99.90;;;;;;5074147;28;20025;-63
2022/01/17 04:34:46;;;;;;;9.63;5.70;;;3.90;99.90;;;;;;5056196;28;20020;-63
2022/01/17 04:37:12;;;;;;;11.80;6.13;;;3.90;99.90;;;;;;5074125;28;20103;-63
2022/01/17 04:39:38;;;;;;;12.13;6.13;;;3.90;99.90;;;;;;5055809;28;20029;-63
2022/01/17 04:42:11;;;;;;;11.00;6.20;;;3.90;99.90;;;;;;5056069;28;20035;-63
2022/01/17 04:47:21;;;;;;;9.40;4.82;;;3.90;99.90;;;;;;5074026;28;20071;-62
2022/01/17 04:49:47;;;;;;;9.63;5.90;;;4.00;99.90;;;;;;5073821;28;20068;-62
2022/01/17 04:52:14;;;;;;;13.00;5.68;;;4.00;99.90;;;;;;5055878;28;20029;-62
2022/01/17 04:54:43;;;;;;;13.18;6.63;;;4.00;99.90;;;;;;5073805;28;20025;-63
2022/01/17 04:57:12;;;;;;;12.48;7.15;;;4.00;99.90;;;;;;5073844;28;20201;-62
2022/01/17 04:59:42;;;;;;;11.70;5.80;;;4.00;99.90;;;;;;5073763;28;20033;-63
2022/01/17 05:02:09;;;;;;;10.02;5.50;;;4.00;99.90;;;;;;5073911;28;20031;-62
2022/01/17 05:04:35;;;;;;;14.95;6.43;;;4.00;99.90;;;;;;5073329;28;20548;-63
2022/01/17 05:07:01;;;;;;;15.07;6.97;;;4.10;99.90;;;;;;5073730;28;20033;-63
2022/01/17 05:09:27;;;;;;;11.32;5.32;;;4.10;99.90;;;;;;5073778;28;20090;-63
2022/01/17 05:11:53;;;;;;;12.82;6.97;;;4.20;99.90;;;;;;5073649;28;20078;-62
2022/01/17 05:14:19;;;;;;;14.77;6.93;;;4.10;99.90;;;;;;5056225;28;20028;-63
2022/01/17 05:16:50;;;;;;;13.30;6.93;;;4.20;99.90;;;;;;5073326;28;20040;-63
2022/01/17 05:22:00;;;;;;;10.30;5.32;;;4.20;99.90;;;;;;5073615;28;20039;-63
2022/01/17 05:24:26;;;;;;;14.95;7.38;;;4.20;99.90;;;;;;5073516;28;20482;-63
2022/01/17 05:26:52;;;;;;;10.35;6.63;;;4.20;99.90;;;;;;5055641;28;20029;-63
2022/01/17 05:29:17;;;;;;;15.63;6.53;;;4.20;99.90;;;;;;5073547;28;20407;-63
2022/01/17 05:31:43;;;;;;;14.07;7.28;;;4.20;99.90;;;;;;5073400;28;20380;-63
2022/01/17 05:34:09;;;;;;;11.15;6.18;;;4.20;99.90;;;;;;5055614;28;20388;-63
2022/01/17 05:36:35;;;;;;;12.18;6.60;;;4.30;99.90;;;;;;5055432;28;20028;-63
2022/01/17 05:39:00;;;;;;;13.77;7.13;;;4.20;99.90;;;;;;5073375;28;20031;-63
2022/01/17 05:41:26;;;;;;;14.85;7.28;;;4.30;99.90;;;;;;5055398;28;20024;-64
2022/01/17 05:43:51;;;;;;;13.40;7.35;;;4.20;99.90;;;;;;5055427;28;20035;-63
2022/01/17 05:46:17;;;;;;;15.75;7.30;;;4.20;99.90;;;;;;5055534;28;20115;-63
2022/01/17 05:48:43;;;;;;;18.33;7.50;;;4.20;99.90;;;;;;5072872;28;20039;-63
2022/01/17 05:51:09;;;;;;;16.65;7.40;;;4.20;99.90;;;;;;5055263;28;20029;-63
2022/01/17 05:53:34;;;;;;;16.50;7.90;;;4.30;99.90;;;;;;5053839;28;20465;-63
2022/01/17 05:56:00;;;;;;;16.20;8.05;;;4.20;99.90;;;;;;5039936;28;20025;-63
2022/01/17 05:58:25;;;;;;;16.17;7.97;;;4.20;99.90;;;;;;5036570;28;20030;-63
2022/01/17 06:00:52;;;;;;;12.90;7.55;;;4.20;99.90;;;;;;5053454;28;20075;-63
2022/01/17 06:03:18;;;;;;;17.02;7.90;;;4.30;99.90;;;;;;5035196;28;20469;-63
2022/01/17 06:05:44;;;;;;;16.77;7.50;;;4.20;99.90;;;;;;5053045;28;20063;-64
2022/01/17 06:08:09;;;;;;;17.23;8.05;;;4.20;99.90;;;;;;5052484;28;20075;-64
2022/01/17 06:10:53;;;;;;;17.75;8.50;;;4.30;99.90;;;;;;5053299;28;20449;-64
2022/01/17 06:13:19;;;;;;;13.40;6.78;;;4.30;99.90;;;;;;5053068;28;20104;-62
2022/01/17 06:15:45;;;;;;;15.48;7.22;;;4.30;99.90;;;;;;5054294;28;20068;-62
2022/01/17 06:18:10;;;;;;;15.05;7.95;;;4.20;99.90;;;;;;5056932;28;20033;-64
2022/01/17 06:20:36;;;;;;;12.77;7.25;;;4.20;99.90;;;;;;5056881;28;20083;-63
2022/01/17 06:23:02;;;;;;;15.55;7.90;;;4.20;99.90;;;;;;5038923;28;20353;-63
2022/01/17 06:25:27;;;;;;;13.32;7.43;;;4.20;99.90;;;;;;5056498;28;20559;-63
2022/01/17 06:27:53;;;;;;;12.73;6.47;;;4.10;99.90;;;;;;5038551;28;20063;-63
2022/01/17 06:30:19;;;;;;;15.00;8.73;;;4.20;99.90;;;;;;5056603;28;20373;-63
2022/01/17 06:35:30;;;;;;;15.73;8.07;;;4.20;99.90;;;;;;5056405;28;20040;-63
2022/01/17 06:37:56;;;;;;;15.80;7.32;;;4.30;99.90;;;;;;5038609;28;20491;-64
2022/01/17 06:40:22;;;;;;;14.15;6.45;;;4.30;99.90;;;;;;5038342;28;20025;-63
2022/01/17 06:42:50;;;;;;;16.48;6.85;;;4.30;99.90;;;;;;5056521;28;20025;-63
2022/01/17 06:45:18;;;;;;;13.50;7.75;;;4.30;99.90;;;;;;5056100;28;20111;-63
2022/01/17 06:47:44;;;;;;;12.75;6.85;;;4.30;99.90;;;;;;5056095;28;20132;-62
2022/01/17 06:50:11;;;;;;;14.48;6.07;;;4.40;99.90;;;;;;5055877;28;20492;-63
2022/01/17 06:52:38;;;;;;;15.68;7.78;;;4.40;99.90;;;;;;5056094;28;20028;-63
2022/01/17 06:55:07;;;;;;;13.27;6.85;;;4.40;99.90;;;;;;5037976;28;20028;-63
2022/01/17 06:57:33;;;;;;;10.68;6.07;;;4.40;99.90;;;;;;5055614;28;20029;-63
2022/01/17 06:59:59;;;;;;;17.63;8.45;;;4.40;99.90;;;;;;5037829;28;20040;-63
2022/01/17 07:02:25;;;;;;;17.13;7.43;;;4.40;99.90;;;;;;5055923;28;20029;-63
2022/01/17 07:04:51;;;;;;;14.52;7.05;;;4.50;99.90;;;;;;5038000;28;20029;-63
2022/01/17 07:07:17;;;;;;;12.10;6.50;;;4.50;99.90;;;;;;5055898;28;20099;-63
2022/01/17 07:09:43;;;;;;;12.82;7.13;;;4.40;99.90;;;;;;5069968;28;20101;-63
2022/01/17 07:12:09;;;;;;;15.13;7.72;;;4.40;99.90;;;;;;5075862;28;20111;-63
2022/01/17 07:14:41;;;;;;;15.88;8.07;;;4.40;99.90;;;;;;5075737;28;20016;-63
2022/01/17 07:17:08;;;;;;;14.18;6.82;;;4.40;99.90;;;;;;5074466;28;20400;-64
2022/01/17 07:19:34;;;;;;;17.73;7.70;;;4.40;99.90;;;;;;5074335;28;20460;-62
2022/01/17 07:22:00;;;;;;;17.15;7.57;;;4.40;99.90;;;;;;5075553;28;20039;-63
2022/01/17 07:24:25;;;;;;;20.77;8.50;;;4.40;99.90;;;;;;5075893;28;20028;-63
2022/01/17 07:26:51;;;;;;;12.75;7.10;;;4.40;99.90;;;;;;5074137;28;20029;-63
2022/01/17 07:29:17;;;;;;;15.57;7.70;;;4.40;99.90;;;;;;5074046;28;20460;-64
2022/01/17 07:31:42;;;;;;;18.05;7.43;;;4.40;99.90;;;;;;5075362;28;20051;-63
2022/01/17 07:34:08;;;;;;;15.00;6.63;;;4.40;99.90;;;;;;5075397;28;20032;-63
2022/01/17 07:36:34;;;;;;;15.20;6.68;;;4.40;99.90;;;;;;5075173;28;20032;-63
2022/01/17 07:39:00;;;;;;;15.88;7.00;;;4.50;99.90;;;;;;5075246;28;20085;-63
2022/01/17 07:41:26;;;;;;;14.82;7.55;;;4.50;99.90;;;;;;5075338;28;20027;-63
2022/01/17 07:43:53;;;;;;;13.23;6.53;;;4.50;99.90;;;;;;5075332;28;20031;-63
2022/01/17 07:46:25;;;;;;;15.45;7.47;;;4.50;99.90;;;;;;5075027;28;20108;-63
2022/01/17 07:51:27;;;;;;;14.55;7.43;;;4.70;99.90;;;;;;5074920;28;20039;-63
2022/01/17 07:53:54;;;;;;;18.80;7.85;;;4.70;99.90;;;;;;5074848;28;20529;-63
2022/01/17 07:56:20;;;;;;;13.20;6.95;;;4.50;99.90;;;;;;5073269;28;20081;-64
2022/01/17 07:58:46;;;;;;;14.50;7.60;;;4.50;99.90;;;;;;5074657;28;20107;-63
2022/01/17 08:01:12;;;;;;;13.65;6.65;;;4.50;99.90;;;;;;5073394;28;20028;-63
2022/01/17 08:03:37;;;;;;;14.02;6.18;;;4.50;99.90;;;;;;5073296;28;20028;-63
2022/01/17 08:06:03;;;;;;;12.75;6.75;;;4.50;99.90;;;;;;5074633;28;20025;-63
2022/01/17 08:08:29;;;;;;;13.90;6.63;;;4.60;99.90;;;;;;5073258;28;20052;-63
2022/01/17 08:10:55;;;;;;;13.35;5.82;;;4.60;99.90;;;;;;5073275;28;20021;-63
2022/01/17 08:13:20;;;;;;;12.23;5.97;;;4.60;99.90;;;;;;5074806;28;20109;-62
2022/01/17 08:15:47;;;;;;;20.70;7.65;;;4.70;99.90;;;;;;5074593;28;20024;-62
2022/01/17 08:18:13;;;;;;;14.43;6.45;;;4.70;99.90;;;;;;5073182;28;20115;-63
2022/01/17 08:20:39;;;;;;;10.85;5.50;;;4.60;99.90;;;;;;5074421;28;20103;-63
2022/01/17 08:23:05;;;;;;;9.85;4.82;;;4.70;99.90;;;;;;5073281;28;20432;-63
2022/01/17 08:25:31;;;;;;;12.68;5.13;;;4.70;99.90;;;;;;5072730;28;20362;-64
2022/01/17 08:27:57;;;;;;;10.07;5.28;;;4.70;99.90;;;;;;5074024;28;20067;-63
2022/01/17 08:30:23;;;;;;;8.98;4.80;;;4.80;99.90;;;;;;5073803;28;20060;-64
2022/01/17 08:32:50;;;;;;;8.15;4.55;;;4.80;99.90;;;;;;5072841;28;20029;-64
2022/01/17 08:35:17;;;;;;;8.30;4.25;;;4.90;99.90;;;;;;5074138;28;20024;-63
2022/01/17 08:37:43;;;;;;;7.90;3.50;;;4.90;99.90;;;;;;5072770;28;20358;-63
2022/01/17 08:40:09;;;;;;;8.85;4.68;;;4.90;99.90;;;;;;5073486;28;20107;-64
2022/01/17 08:42:39;;;;;;;7.32;3.80;;;4.90;99.90;;;;;;5072190;28;20029;-63
2022/01/17 08:45:07;;;;;;;22.17;4.13;;;5.00;99.90;;;;;;5073797;28;20036;-63
2022/01/17 08:47:33;;;;;;;5.97;3.38;;;5.00;99.90;;;;;;5073737;28;20024;-63
2022/01/17 08:49:59;;;;;;;9.00;4.05;;;5.10;99.90;;;;;;5073745;28;20040;-64
2022/01/17 08:52:25;;;;;;;11.27;3.92;;;5.00;99.90;;;;;;5073224;28;20050;-63
2022/01/17 08:54:51;;;;;;;6.97;3.90;;;5.00;99.90;;;;;;5073987;28;20444;-63
2022/01/17 08:57:20;;;;;;;6.95;3.70;;;5.00;99.90;;;;;;5073638;28;20046;-63
2022/01/17 08:59:46;;;;;;;4.28;2.92;;;5.00;99.90;;;;;;5073587;28;20040;-63
2022/01/17 09:02:12;;;;;;;5.63;3.53;;;5.10;99.90;;;;;;5072543;28;20380;-63
2022/01/17 09:04:41;;;;;;;5.28;3.25;;;5.10;99.90;;;;;;5072817;28;20036;-63
2022/01/17 09:07:14;;;;;;;7.00;3.45;;;5.10;99.90;;;;;;5073426;28;20078;-63
2022/01/17 09:09:42;;;;;;;6.47;3.60;;;5.10;99.90;;;;;;5056464;28;20045;-63
2022/01/17 09:12:10;;;;;;;6.18;3.45;;;5.10;99.90;;;;;;5053735;28;20053;-63
2022/01/17 09:14:37;;;;;;;7.23;3.37;;;5.20;99.90;;;;;;5053684;28;20469;-63
2022/01/17 09:17:04;;;;;;;5.95;3.50;;;5.20;99.90;;;;;;5053332;28;20025;-64
2022/01/17 09:19:30;;;;;;;9.13;3.92;;;5.20;99.90;;;;;;5053281;28;20029;-63
2022/01/17 09:21:55;;;;;;;10.77;4.18;;;5.20;99.90;;;;;;5053365;28;20104;-63
2022/01/17 09:24:21;;;;;;;7.97;3.47;;;5.20;99.90;;;;;;5053408;28;20025;-63
2022/01/17 09:26:47;;;;;;;6.32;3.38;;;5.30;99.90;;;;;;5053194;28;20052;-63
2022/01/17 09:29:13;;;;;;;8.18;3.97;;;5.20;99.90;;;;;;5053118;28;20464;-63
2022/01/17 09:31:39;;;;;;;8.65;3.75;;;5.30;99.90;;;;;;5052885;28;20036;-63
2022/01/17 09:34:05;;;;;;;5.70;3.25;;;5.30;99.90;;;;;;5053192;28;20025;-63
2022/01/17 09:36:34;;;;;;;7.60;3.72;;;5.30;99.90;;;;;;5035483;28;20033;-63
2022/01/17 09:39:00;;;;;;;7.47;3.63;;;5.20;99.90;;;;;;5034942;28;20032;-64
2022/01/17 09:41:26;;;;;;;8.95;4.20;;;5.30;99.90;;;;;;5053382;28;20025;-63
2022/01/17 09:43:52;;;;;;;6.93;3.83;;;5.30;99.90;;;;;;5053132;28;20439;-63
2022/01/17 09:46:22;;;;;;;7.25;3.72;;;5.50;99.90;;;;;;5052790;28;20501;-64
2022/01/17 09:48:50;;;;;;;7.18;3.72;;;5.70;99.90;;;;;;5053025;28;20032;-63
2022/01/17 09:54:05;;;;;;;9.88;4.10;;;5.60;99.90;;;;;;5056825;28;20072;-63
2022/01/17 09:56:31;;;;;;;8.38;4.10;;;5.70;99.90;;;;;;5056930;28;20078;-64
2022/01/17 09:58:58;;;;;;;6.20;3.90;;;5.60;99.90;;;;;;5039408;28;20102;-63
2022/01/17 10:01:25;;;;;;;11.73;4.20;;;5.60;99.90;;;;;;5038864;28;20029;-63
2022/01/17 10:03:56;;;;;;;10.98;4.53;;;5.60;99.90;;;;;;5056676;28;20025;-63
2022/01/17 10:06:23;;;;;;;9.00;4.15;;;5.60;99.90;;;;;;5057014;28;20021;-63
2022/01/17 10:08:49;;;;;;;9.00;4.47;;;5.60;99.90;;;;;;5056671;28;20050;-63
2022/01/17 10:11:16;;;;;;;11.65;4.57;;;5.60;99.90;;;;;;5038746;28;20388;-63
2022/01/17 10:13:45;;;;;;;8.40;4.72;;;5.50;99.90;;;;;;5056572;28;20025;-64
2022/01/17 10:19:03;;;;;;;8.20;3.83;;;5.40;99.90;;;;;;5056546;28;20124;-62
2022/01/17 10:21:45;;;;;;;13.38;5.03;;;5.60;99.90;;;;;;5056367;28;20025;-66
2022/01/17 10:34:55;;;;;;;;;;;5.70;99.90;;;;;;5056731;28;20475;-63
2022/01/17 10:37:24;;;;;;;15.40;4.60;;;5.70;99.90;;;;;;5056206;28;19905;-63
2022/01/17 10:40:02;;;;;;;8.45;3.78;;;5.80;99.90;;;;;;5055762;28;20495;-62
2022/01/17 10:42:34;;;;;;;7.13;3.35;;;6.00;99.90;;;;;;5038192;28;20123;-63
2022/01/17 10:45:07;;;;;;;9.10;4.45;;;6.00;99.90;;;;;;5056203;28;20445;-63
2022/01/17 10:47:36;;;;;;;13.48;3.90;;;6.10;99.90;;;;;;5038090;28;20029;-63
2022/01/17 10:50:06;;;;;;;8.80;3.25;;;6.10;99.90;;;;;;5037926;28;20083;-64
2022/01/17 10:53:02;;;;;;;9.10;4.00;;;6.30;99.90;;;;;;5038132;28;20127;-64
2022/01/17 10:55:37;;;;;;;9.95;3.80;;;6.30;99.90;;;;;;5034435;28;20037;-63
2022/01/17 10:58:09;;;;;;;5.68;3.33;;;6.20;99.90;;;;;;5055798;28;20036;-63
2022/01/17 11:00:37;;;;;;;8.27;3.90;;;6.10;99.90;;;;;;5056086;28;20029;-63
2022/01/17 11:03:07;;;;;;;5.53;3.28;;;5.90;99.90;;;;;;5055343;28;20025;-63
2022/01/17 11:05:34;;;;;;;5.28;3.50;;;6.00;99.90;;;;;;5055583;28;20029;-63
2022/01/17 11:08:02;;;;;;;5.55;3.45;;;5.90;99.90;;;;;;5055324;28;20052;-63
2022/01/17 11:10:29;;;;;;;4.60;2.88;;;6.00;99.90;;;;;;5037805;28;20029;-58
2022/01/17 11:12:56;;;;;;;5.75;2.92;;;6.50;99.90;;;;;;5055449;28;20025;-59
2022/01/17 11:15:24;;;;;;;6.03;3.08;;;7.00;99.90;;;;;;5055454;28;20075;-63
2022/01/17 11:18:03;;;;;;;5.05;3.28;;;7.20;99.90;;;;;;5055521;28;20032;-62
2022/01/17 11:20:29;;;;;;;4.13;2.80;;;6.60;99.90;;;;;;5037491;28;20036;-63
2022/01/17 11:22:57;;;;;;;7.50;2.88;;;6.30;99.90;;;;;;5055572;28;20029;-63
2022/01/17 11:25:40;;;;;;;6.03;3.28;;;6.20;99.90;;;;;;5055260;28;20112;-63
2022/01/17 11:28:06;;;;;;;5.55;3.22;;;6.10;99.90;;;;;;5037414;28;20473;-63
2022/01/17 11:30:34;;;;;;;4.60;2.70;;;6.10;99.90;;;;;;5055279;28;20032;-62
2022/01/17 11:33:04;;;;;;;5.65;3.67;;;6.10;99.90;;;;;;5037190;28;20404;-63
2022/01/17 11:35:31;;;;;;;6.00;2.95;;;6.10;99.90;;;;;;5055507;28;20025;-62
2022/01/17 11:37:59;;;;;;;4.72;2.92;;;6.10;99.90;;;;;;5054743;28;20547;-62
2022/01/17 11:40:54;;;;;;;7.03;2.95;;;6.10;99.90;;;;;;5037056;28;20032;-63
2022/01/17 11:43:35;;;;;;;6.18;3.72;;;6.00;99.90;;;;;;5036996;28;20507;-62
2022/01/17 11:46:18;;;;;;;6.22;3.38;;;6.00;99.90;;;;;;5055036;28;20400;-63
2022/01/17 11:49:04;;;;;;;9.10;3.67;;;6.00;99.90;;;;;;5036868;28;20029;-62
2022/01/17 11:51:40;;;;;;;6.13;3.20;;;6.00;99.90;;;;;;5053383;28;20032;-63
2022/01/17 11:54:17;;;;;;;8.23;4.10;;;6.10;99.90;;;;;;5074584;28;20025;-62
2022/01/17 11:56:58;;;;;;;5.68;3.55;;;6.10;99.90;;;;;;5074909;28;20052;-63
2022/01/17 11:59:29;;;;;;;6.65;3.47;;;6.00;99.90;;;;;;5056867;28;20476;-63
2022/01/17 12:02:16;;;;;;;6.22;3.15;;;6.00;99.90;;;;;;5074502;28;20120;-63
2022/01/17 12:04:41;;;;;;;5.57;3.80;;;6.00;99.90;;;;;;5072311;28;20103;-63
2022/01/17 12:07:07;;;;;;;6.00;3.17;;;6.00;99.90;;;;;;5056468;28;20115;-62
2022/01/17 12:09:35;;;;;;;5.10;3.05;;;6.10;99.90;;;;;;5085296;28;20484;-64
2022/01/17 12:12:03;;;;;;;4.78;2.90;;;6.30;99.90;;;;;;5092560;28;20024;-63
2022/01/17 12:14:33;;;;;;;6.47;3.72;;;6.50;99.90;;;;;;5093602;28;20030;-63
2022/01/17 12:17:23;;;;;;;6.55;3.28;;;6.60;99.90;;;;;;5077648;28;20029;-63
2022/01/17 12:20:07;;;;;;;5.10;3.28;;;6.50;99.90;;;;;;5073596;28;20372;-64
2022/01/17 12:22:39;;;;;;;6.90;3.05;;;6.40;99.90;;;;;;5093141;28;20070;-63
2022/01/17 12:25:24;;;;;;;6.38;3.10;;;6.20;99.90;;;;;;5094790;28;20082;-63
2022/01/17 12:28:12;;;;;;;4.78;2.78;;;6.10;99.90;;;;;;5093029;28;20028;-63
2022/01/17 12:30:45;;;;;;;6.25;3.30;;;6.00;99.90;;;;;;5070236;28;20129;-63
2022/01/17 12:33:31;;;;;;;7.35;3.55;;;6.00;99.90;;;;;;5094254;28;20024;-62
2022/01/17 12:35:59;;;;;;;3.92;2.97;;;6.00;99.90;;;;;;5088727;28;20024;-64
2022/01/17 12:38:41;;;;;;;5.97;3.20;;;5.90;99.90;;;;;;5073528;28;20032;-63
2022/01/17 12:41:27;;;;;;;7.03;3.25;;;5.90;99.90;;;;;;5081806;28;20035;-63
2022/01/17 12:43:53;;;;;;;6.15;3.65;;;5.90;99.90;;;;;;5072550;28;20047;-63
2022/01/17 12:46:20;;;;;;;7.32;2.83;;;5.90;99.90;;;;;;5073257;28;20036;-62
2022/01/17 12:48:48;;;;;;;6.10;4.15;;;5.90;99.90;;;;;;5072393;28;20036;-62
2022/01/17 12:51:14;;;;;;;6.07;3.15;;;5.90;99.90;;;;;;5072044;28;20025;-63
2022/01/17 12:53:49;;;;;;;7.82;3.55;;;5.90;99.90;;;;;;5073711;28;20107;-64
2022/01/17 12:56:15;;;;;;;5.47;3.17;;;5.90;99.90;;;;;;5074288;28;20025;-63
2022/01/17 12:58:41;;;;;;;5.00;2.80;;;5.90;99.90;;;;;;5072365;28;20031;-63
2022/01/17 13:01:12;;;;;;;10.43;3.75;;;5.90;99.90;;;;;;5079209;28;20028;-63
2022/01/17 13:03:41;;;;;;;6.57;3.13;;;5.90;99.90;;;;;;5093872;28;20063;-63
2022/01/17 13:06:15;;;;;;;5.10;2.27;;;5.90;99.90;;;;;;5086507;28;20032;-63
2022/01/17 13:08:41;;;;;;;3.83;2.85;;;5.90;99.90;;;;;;5064167;28;20037;-62
2022/01/17 13:11:13;;;;;;;5.75;2.67;;;5.90;99.90;;;;;;5053810;28;20029;-63
2022/01/17 13:13:52;;;;;;;8.00;3.03;;;5.80;99.90;;;;;;5035089;28;20028;-63
2022/01/17 13:16:21;;;;;;;4.70;2.80;;;5.90;99.90;;;;;;5062449;28;20029;-63
2022/01/17 13:18:47;;;;;;;6.50;3.72;;;5.80;99.90;;;;;;5055482;28;20115;-63
2022/01/17 13:21:13;;;;;;;7.32;2.90;;;5.80;99.90;;;;;;5050186;28;20037;-63
2022/01/17 13:23:54;;;;;;;6.38;2.40;;;5.80;99.90;;;;;;5053450;28;20133;-63
2022/01/17 13:26:24;;;;;;;5.97;3.10;;;5.80;99.90;;;;;;5057290;28;20058;-62
2022/01/17 13:28:53;;;;;;;7.47;2.47;;;5.80;99.90;;;;;;5057643;28;20037;-63
2022/01/17 13:31:22;;;;;;;4.70;2.70;;;5.80;99.90;;;;;;5059126;28;20103;-63
2022/01/17 13:33:48;;;;;;;3.85;2.80;;;5.80;99.90;;;;;;5039388;28;20032;-63
2022/01/17 13:36:25;;;;;;;4.78;2.83;;;5.80;99.90;;;;;;5059071;28;20121;-63
2022/01/17 13:39:03;;;;;;;6.10;3.13;;;5.80;99.90;;;;;;5059371;28;20063;-63